Brillion, Wisconsin
Current Conditions -  °F | °C
As of 9:56 AM on Wednesday 26 Nov 2014 (Local Time) from KMTW Reporting Station
Overcast Overcast  
Wind Chill: 13°   Ceiling: 1700
Heat Index: 22°   Visibility: 10mi
Dew Point: 19°   Wind: 8mph
Humidity: 89%   Direction: 10°N
Pressure: 30.17"   Gusts: NA
Location:  44.18°N, 88.06°W
Report Text: KMTW 261556Z AUTO 01007KT 10SM OVC017 M06/M07 A3017 RMK AO2 SLP244 T10561072 FZRANO
Loading
Personal Weather Stations






























Interactive Weather Map New forecast layout! Learn more

10-Day Weather Forecast

Advertisements
Track Severe Weather on mobile